Main page
METAR-TAF:

METAR-TAF

Airports :

Hihifo Airport

Wallis, France

latitude: 13-14S, longitude: 176-10W, elevation: 23 m

METAR: missing

Time: 17:29 (05:29 UTC)

Forecast

The report was made 6 hours and 29 minutes ago, at 23:00 UTC
Forecast valid from 24 at 00 UTC to 24 at 24 UTC
Wind 8 kt from the Northwest
Visibility 10 km or more
Scattered clouds at a height of 2000 ft

TAF: NLWW 232300Z 2400/2424 32008KT 9999 SCT020

Weather observations and forecasts of more than 4000 airports (METAR and TAF reports).

The available stations are represented by yellow and red dots on the map.

Hover mouse over dot to see the name of the station.

Then click to see weather observations and forecasts.

To change the map : click on the green buttons with a black cross to zoom in, on the green button with a dash to zoom out, or on the green arrows for adjacent maps.


METAR-TAF: